Time;durP1;ratioP1;P1;durP2;ratioP2;P2;SDS_P1;SDS_P2;PMS_P1;PMS_P2;Temp;Humidity;BMP_temperature;BMP_pressure;BME280_temperature;BME280_humidity;BME280_pressure;Samples;Min_cycle;Max_cycle;Signal;HPM_P1;HPM_P2
2021/12/16 00:01:51;;;;;;;69.24;30.18;;;;;;;1.83;100.00;97425.50;1018327;29;20030;-68
2021/12/16 00:02:29;;;;;;;70.85;31.23;;;;;;;1.80;100.00;97425.81;1018731;29;20083;-70
2021/12/16 00:03:29;;;;;;;68.43;32.63;;;;;;;1.83;100.00;97430.66;1018306;29;20989;-71
2021/12/16 00:05:13;;;;;;;64.82;30.80;;;;;;;1.79;100.00;97416.44;1021377;28;20060;-70
2021/12/16 00:07:12;;;;;;;60.17;29.30;;;;;;;1.78;100.00;97409.66;1022204;28;20173;-71
2021/12/16 00:07:48;;;;;;;46.88;25.75;;;;;;;1.79;100.00;97430.19;1018016;29;20267;-70
2021/12/16 00:09:01;;;;;;;55.92;28.23;;;;;;;1.69;100.00;97416.63;1014448;29;20332;-71
2021/12/16 00:09:42;;;;;;;58.78;28.42;;;;;;;1.71;100.00;97419.88;1016980;29;20345;-73
2021/12/16 00:10:23;;;;;;;55.86;28.60;;;;;;;1.75;100.00;97422.94;1014429;29;20273;-70
2021/12/16 00:11:09;;;;;;;58.58;29.08;;;;;;;1.76;100.00;97427.13;1015612;29;20032;-71
2021/12/16 00:29:14;;;;;;;62.92;30.85;;;;;;;1.79;100.00;97411.28;1016899;29;20279;-69
2021/12/16 00:31:36;;;;;;;51.65;27.67;;;;;;;1.84;100.00;97419.34;1021174;28;20023;-69
2021/12/16 00:32:21;;;;;;;49.35;26.65;;;;;;;1.84;100.00;97419.34;1011737;29;20273;-69
2021/12/16 00:33:14;;;;;;;57.98;28.90;;;;;;;1.81;100.00;97414.47;1014362;29;20627;-69
2021/12/16 00:33:56;;;;;;;56.88;28.40;;;;;;;1.81;100.00;97419.66;1020410;28;20020;-69
2021/12/16 00:34:29;;;;;;;51.03;27.42;;;;;;;1.76;100.00;97403.84;1023786;28;20258;-69
2021/12/16 00:34:59;;;;;;;52.03;27.95;;;;;;;1.83;100.00;97420.31;1019383;29;20354;-70
2021/12/16 00:35:30;;;;;;;44.97;26.15;;;;;;;1.82;100.00;97421.31;1014122;29;20264;-69
2021/12/16 00:36:01;;;;;;;44.53;25.45;;;;;;;1.79;100.00;97426.81;1010463;29;20024;-72
2021/12/16 00:36:35;;;;;;;52.85;27.55;;;;;;;1.77;100.00;97414.00;1006212;29;20018;-71
2021/12/16 00:37:06;;;;;;;53.70;28.10;;;;;;;1.81;100.00;97424.84;1014226;29;20268;-70
2021/12/16 00:37:36;;;;;;;56.75;29.77;;;;;;;1.80;100.00;97423.22;1018213;29;20726;-72
2021/12/16 00:38:07;;;;;;;59.45;29.83;;;;;;;1.78;100.00;97417.44;1018334;29;20074;-70
2021/12/16 00:38:38;;;;;;;59.20;30.95;;;;;;;1.77;100.00;97424.38;1010111;29;20024;-69
2021/12/16 00:39:11;;;;;;;62.92;31.70;;;;;;;1.78;100.00;97420.03;1010626;29;20024;-71
2021/12/16 00:39:44;;;;;;;62.95;30.08;;;;;;;1.83;100.00;97430.66;1014890;29;20260;-70
2021/12/16 00:40:14;;;;;;;53.75;27.33;;;;;;;1.85;100.00;97426.16;1018781;29;20884;-70
2021/12/16 00:40:45;;;;;;;58.45;29.83;;;;;;;1.83;100.00;97428.88;1022149;29;20297;-70
2021/12/16 00:41:15;;;;;;;54.85;27.67;;;;;;;1.86;100.00;97427.75;1021481;28;20099;-71
2021/12/16 00:41:50;;;;;;;61.35;29.63;;;;;;;1.82;100.00;97421.31;1017701;29;20028;-71
2021/12/16 00:42:48;;;;;;;56.20;29.35;;;;;;;1.82;100.00;97418.72;1018275;29;20031;-71
2021/12/16 00:43:26;;;;;;;60.63;29.13;;;;;;;1.90;100.00;97429.03;1010155;29;20348;-70
2021/12/16 00:44:08;;;;;;;60.45;29.52;;;;;;;1.93;100.00;97431.28;1010450;29;20296;-70
2021/12/16 00:46:58;;;;;;;49.22;26.83;;;;;;;1.86;100.00;97431.16;1022461;29;20827;-71
2021/12/16 00:47:34;;;;;;;51.40;27.55;;;;;;;1.90;100.00;97431.63;1018632;29;20262;-71
2021/12/16 00:49:50;;;;;;;51.70;25.88;;;;;;;1.86;100.00;97418.19;1014455;29;21256;-71
2021/12/16 00:54:07;;;;;;;49.42;27.52;;;;;;;1.79;100.00;97416.44;1018469;29;20023;-71
2021/12/16 00:54:09;;;;;;;42.20;24.00;;;;;;;1.85;100.00;97423.56;1025034;28;20853;-70
2021/12/16 00:54:43;;;;;;;40.53;23.92;;;;;;;1.86;100.00;97428.56;1018903;29;20116;-71
2021/12/16 00:55:27;;;;;;;45.20;24.27;;;;;;;1.87;100.00;97431.94;1017775;29;20287;-69
2021/12/16 00:55:58;;;;;;;43.88;24.30;;;;;;;1.82;100.00;97427.28;1014769;29;20636;-70
2021/12/16 00:56:29;;;;;;;49.08;25.98;;;;;;;1.87;100.00;97434.53;1022596;28;20263;-70
2021/12/16 00:57:06;;;;;;;46.80;26.02;;;;;;;1.85;100.00;97437.31;1022761;28;20271;-71
2021/12/16 00:57:37;;;;;;;47.30;26.55;;;;;;;1.87;100.00;97440.50;1022621;29;20051;-70
2021/12/16 00:58:08;;;;;;;50.45;26.77;;;;;;;1.87;100.00;97444.88;1017985;29;20271;-71
2021/12/16 00:58:44;;;;;;;48.50;27.55;;;;;;;1.82;100.00;97427.28;1010540;29;20786;-71
2021/12/16 00:59:17;;;;;;;49.17;28.30;;;;;;;1.86;100.00;97433.72;1011032;29;20016;-71
2021/12/16 00:59:52;;;;;;;51.55;27.45;;;;;;;1.86;100.00;97432.94;1015138;29;20325;-71
2021/12/16 01:00:26;;;;;;;56.47;30.17;;;;;;;1.80;100.00;97425.81;1014249;29;20725;-70
2021/12/16 01:02:12;;;;;;;56.92;28.27;;;;;;;1.86;100.00;97438.09;1002930;29;21028;-71
2021/12/16 01:03:01;;;;;;;57.58;28.25;;;;;;;1.81;100.00;97430.84;1009537;29;20268;-70
2021/12/16 01:03:42;;;;;;;59.00;28.60;;;;;;;1.81;100.00;97420.50;1015000;29;20799;-70
2021/12/16 01:34:05;;;;;;;50.56;27.38;;;;;;;1.74;100.00;97435.03;1022076;29;20270;-70
2021/12/16 01:34:53;;;;;;;60.13;29.52;;;;;;;1.69;100.00;97429.56;1019906;29;20062;-70
2021/12/16 01:40:12;;;;;;;49.08;25.86;;;;;;;1.74;100.00;97439.41;1018568;29;20279;-71
2021/12/16 01:42:46;;;;;;;53.42;29.70;;;;;;;1.71;100.00;97432.81;1018724;29;20031;-70
2021/12/16 01:47:11;;;;;;;44.80;26.50;;;;;;;1.74;100.00;97431.66;1020506;28;20489;-71
2021/12/16 01:49:45;;;;;;;44.44;26.34;;;;;;;1.78;100.00;97431.16;1014845;29;20308;-70
2021/12/16 01:50:21;;;;;;;45.08;24.40;;;;;;;1.77;100.00;97432.13;1013829;29;20138;-69
2021/12/16 01:50:57;;;;;;;44.75;25.25;;;;;;;1.78;100.00;97431.16;1013293;29;20308;-70
2021/12/16 01:51:54;;;;;;;45.34;25.24;;;;;;;1.77;100.00;97428.72;1019148;29;20342;-70
2021/12/16 01:53:33;;;;;;;48.70;26.02;;;;;;;1.74;100.00;97426.47;1018725;29;20769;-71
2021/12/16 01:55:07;;;;;;;51.08;25.84;;;;;;;1.68;100.00;97414.19;1013523;29;20300;-69
2021/12/16 01:55:53;;;;;;;60.64;29.32;;;;;;;1.72;100.00;97423.25;1018885;29;20028;-71
2021/12/16 01:57:40;;;;;;;49.17;26.50;;;;;;;1.78;100.00;97425.19;1021607;28;20038;-70
2021/12/16 01:57:55;;;;;;;48.47;25.70;;;;;;;1.70;100.00;97423.41;1008546;29;20032;-70
2021/12/16 01:58:29;;;;;;;52.00;26.92;;;;;;;1.68;100.00;97419.38;1011860;29;20276;-70
2021/12/16 01:59:03;;;;;;;52.06;26.30;;;;;;;1.70;100.00;97428.59;1017393;29;20730;-71
2021/12/16 01:59:36;;;;;;;51.33;25.85;;;;;;;1.70;100.00;97430.38;1021744;28;20075;-70
2021/12/16 02:00:25;;;;;;;55.26;28.60;;;;;;;1.77;100.00;97428.72;1020970;29;20297;-70
2021/12/16 02:01:11;;;;;;;52.34;27.02;;;;;;;1.79;100.00;97437.16;1023344;29;20296;-71
2021/12/16 02:01:41;;;;;;;52.35;26.77;;;;;;;1.78;100.00;97431.16;1026583;28;20047;-70
2021/12/16 02:02:27;;;;;;;50.00;26.58;;;;;;;1.79;100.00;97437.16;1019853;29;20326;-69
2021/12/16 02:03:03;;;;;;;52.03;26.92;;;;;;;1.76;100.00;97432.31;1011298;29;20025;-71
2021/12/16 02:03:40;;;;;;;54.25;27.98;;;;;;;1.78;100.00;97435.53;1011323;29;20344;-70
2021/12/16 02:04:27;;;;;;;53.33;27.40;;;;;;;1.67;100.00;97423.72;1010871;29;20257;-70
2021/12/16 02:06:46;;;;;;;34.55;20.23;;;;;;;1.76;100.00;97432.31;1015846;29;21154;-70
2021/12/16 02:07:33;;;;;;;38.35;21.55;;;;;;;1.77;100.00;97433.91;1018684;29;20797;-70
2021/12/16 02:08:40;;;;;;;44.42;25.10;;;;;;;1.70;100.00;97430.38;1022774;29;20023;-70
2021/12/16 02:09:22;;;;;;;45.70;24.90;;;;;;;1.74;100.00;97437.63;1023105;29;20102;-69
2021/12/16 02:10:01;;;;;;;48.96;23.86;;;;;;;1.73;100.00;97436.03;1023200;29;20773;-71
2021/12/16 02:10:38;;;;;;;50.90;25.27;;;;;;;1.72;100.00;97431.81;1021796;29;20758;-69
2021/12/16 02:12:07;;;;;;;47.38;24.48;;;;;;;1.75;100.00;97438.47;1018067;29;20306;-71
2021/12/16 02:12:58;;;;;;;;;;;;;;;1.74;100.00;97427.28;1021377;28;20032;-71
2021/12/16 02:27:14;;;;;;;51.67;24.90;;;;;;;1.70;100.00;97428.59;1023175;29;20296;-71
2021/12/16 02:28:09;;;;;;;43.00;22.60;;;;;;;1.62;100.00;97416.47;1022931;28;20041;-70
2021/12/16 02:28:55;;;;;;;;;;;;;;;1.69;100.00;97421.81;1019788;29;20251;-69
2021/12/16 02:31:58;;;;;;;47.66;23.74;;;;;;;1.67;100.00;97422.94;1023222;29;20023;-68
2021/12/16 02:35:47;;;;;;;47.15;24.95;;;;;;;1.63;100.00;97410.31;1023280;29;20031;-69
2021/12/16 02:36:51;;;;;;;42.22;23.40;;;;;;;1.64;100.00;97418.88;1021869;28;20391;-69
2021/12/16 02:37:22;;;;;;;45.32;24.70;;;;;;;1.67;100.00;97426.31;1019300;29;20283;-68
2021/12/16 02:37:53;;;;;;;41.58;23.30;;;;;;;1.64;100.00;97432.66;1019447;29;20040;-69
2021/12/16 02:38:27;;;;;;;45.70;25.05;;;;;;;1.68;100.00;97427.13;1021984;29;20278;-69
2021/12/16 02:39:08;;;;;;;41.75;24.35;;;;;;;1.69;100.00;97423.59;1019038;29;20028;-70
2021/12/16 02:39:39;;;;;;;39.92;22.55;;;;;;;1.71;100.00;97427.63;1023254;29;20275;-69
2021/12/16 02:40:09;;;;;;;37.55;22.65;;;;;;;1.69;100.00;97432.16;1018759;29;20347;-68
2021/12/16 02:40:40;;;;;;;36.08;22.13;;;;;;;1.71;100.00;97431.97;1015801;29;20084;-69
2021/12/16 02:41:11;;;;;;;36.72;22.48;;;;;;;1.68;100.00;97432.31;1011328;29;20064;-69
2021/12/16 02:41:43;;;;;;;36.75;22.25;;;;;;;1.63;100.00;97423.25;1011374;29;20033;-69
2021/12/16 02:42:20;;;;;;;34.60;21.77;;;;;;;1.61;100.00;97412.28;1015413;29;20057;-70
2021/12/16 02:44:27;;;;;;;35.10;21.70;;;;;;;1.69;100.00;97429.56;1017168;29;20055;-70
2021/12/16 02:48:53;;;;;;;44.38;23.13;;;;;;;1.72;100.00;97431.03;1018201;29;20315;-68
2021/12/16 02:49:23;;;;;;;40.08;23.52;;;;;;;1.69;100.00;97426.16;1020071;29;20282;-69
2021/12/16 02:49:54;;;;;;;43.17;23.85;;;;;;;1.68;100.00;97432.31;1023169;29;20448;-70
2021/12/16 02:50:25;;;;;;;46.40;24.65;;;;;;;1.65;100.00;97426.50;1011251;29;20036;-69
2021/12/16 02:51:09;;;;;;;47.03;25.35;;;;;;;1.61;100.00;97421.81;1014862;29;20028;-69
2021/12/16 02:51:39;;;;;;;52.14;27.24;;;;;;;1.67;100.00;97428.09;1015559;29;20256;-69
2021/12/16 02:52:10;;;;;;;47.67;26.15;;;;;;;1.59;100.00;97411.63;1018837;29;20040;-68
2021/12/16 02:52:40;;;;;;;47.78;26.35;;;;;;;1.68;100.00;97432.31;1015391;29;20090;-69
2021/12/16 02:53:11;;;;;;;49.13;25.67;;;;;;;1.66;100.00;97429.88;1015195;29;20024;-68
2021/12/16 02:53:45;;;;;;;46.60;25.70;;;;;;;1.69;100.00;97426.97;1011534;29;20028;-69
2021/12/16 02:54:16;;;;;;;48.33;26.48;;;;;;;1.71;100.00;97434.56;1015330;29;20545;-69
2021/12/16 02:54:46;;;;;;;43.50;25.60;;;;;;;1.72;100.00;97434.41;1010911;29;20300;-69
2021/12/16 02:55:17;;;;;;;44.85;25.55;;;;;;;1.70;100.00;97427.78;1011105;29;20063;-69
2021/12/16 02:55:51;;;;;;;41.47;24.00;;;;;;;1.68;100.00;97427.97;1014163;29;20103;-69
2021/12/16 02:56:22;;;;;;;43.65;25.52;;;;;;;1.68;100.00;97429.72;1015930;29;20351;-68
2021/12/16 02:56:53;;;;;;;38.10;22.73;;;;;;;1.63;100.00;97425.84;1019201;29;20275;-69
2021/12/16 02:57:24;;;;;;;40.65;23.30;;;;;;;1.69;100.00;97431.34;1019103;29;20052;-69
2021/12/16 02:58:00;;;;;;;35.30;21.88;;;;;;;1.68;100.00;97424.53;1011226;29;20640;-69
2021/12/16 02:58:31;;;;;;;37.08;22.45;;;;;;;1.73;100.00;97432.63;1011395;29;20277;-68
2021/12/16 02:59:02;;;;;;;41.25;24.00;;;;;;;1.69;100.00;97442.50;1011112;29;20791;-70
2021/12/16 02:59:32;;;;;;;35.28;22.27;;;;;;;1.72;100.00;97433.63;1016054;29;20280;-69
2021/12/16 03:00:05;;;;;;;39.13;22.98;;;;;;;1.69;100.00;97431.34;1014535;29;20112;-68
2021/12/16 03:00:39;;;;;;;39.38;23.70;;;;;;;1.67;100.00;97433.28;1016461;29;20036;-69
2021/12/16 03:01:24;;;;;;;38.38;23.06;;;;;;;1.69;100.00;97444.28;1012088;29;20809;-68
2021/12/16 03:01:57;;;;;;;42.20;23.88;;;;;;;1.62;100.00;97434.59;1016069;29;20498;-69
2021/12/16 03:02:31;;;;;;;38.80;23.17;;;;;;;1.68;100.00;97442.66;1019153;29;20673;-69
2021/12/16 03:03:01;;;;;;;41.78;24.02;;;;;;;1.64;100.00;97439.59;1014474;29;20280;-69
2021/12/16 03:03:34;;;;;;;40.55;24.00;;;;;;;1.69;100.00;97442.50;1018504;29;20272;-69
2021/12/16 03:04:08;;;;;;;36.60;22.55;;;;;;;1.64;100.00;97440.41;1019368;29;20473;-70
2021/12/16 03:04:39;;;;;;;40.38;23.25;;;;;;;1.64;100.00;97434.41;1019123;29;20262;-69
2021/12/16 03:05:11;;;;;;;37.30;22.45;;;;;;;1.69;100.00;97450.25;1018582;29;20297;-69
2021/12/16 03:05:41;;;;;;;41.67;25.27;;;;;;;1.63;100.00;97438.78;1017495;29;20263;-70
2021/12/16 03:06:12;;;;;;;41.65;23.15;;;;;;;1.71;100.00;97450.91;1014843;29;20272;-68
2021/12/16 03:06:45;;;;;;;42.83;24.40;;;;;;;1.68;100.00;97445.22;1015083;29;20450;-69
2021/12/16 03:07:17;;;;;;;41.30;23.85;;;;;;;1.71;100.00;97455.25;1018353;29;20134;-70
2021/12/16 03:07:48;;;;;;;42.63;24.55;;;;;;;1.68;100.00;97455.59;1014568;29;20307;-69
2021/12/16 03:08:18;;;;;;;41.72;23.77;;;;;;;1.67;100.00;97454.78;1014856;29;20833;-70
2021/12/16 03:08:49;;;;;;;42.22;25.20;;;;;;;1.64;100.00;97445.59;1015993;29;20260;-69
2021/12/16 03:09:31;;;;;;;44.28;25.27;;;;;;;1.63;100.00;97443.16;1014788;29;20083;-69
2021/12/16 03:11:38;;;;;;;42.67;24.08;;;;;;;1.61;100.00;97439.91;1011012;29;20167;-69
2021/12/16 03:13:09;;;;;;;49.56;26.44;;;;;;;1.57;100.00;97454.94;1010500;29;20276;-69
2021/12/16 03:13:49;;;;;;;42.80;23.17;;;;;;;1.59;100.00;97452.22;1001652;29;20061;-69
2021/12/16 03:14:29;;;;;;;46.00;26.48;;;;;;;1.61;100.00;97455.44;1007011;29;20293;-70
2021/12/16 03:15:11;;;;;;;42.55;23.92;;;;;;;1.61;100.00;97451.09;1006431;29;20032;-69
2021/12/16 03:16:26;;;;;;;39.50;24.02;;;;;;;1.58;100.00;97440.25;1018750;29;20287;-69
2021/12/16 03:17:18;;;;;;;41.13;24.38;;;;;;;1.60;100.00;97444.28;1022268;28;20265;-69
2021/12/16 03:17:57;;;;;;;40.63;23.35;;;;;;;1.58;100.00;97445.44;1011062;29;20257;-69
2021/12/16 03:18:39;;;;;;;40.16;23.82;;;;;;;1.63;100.00;97459.47;1009499;29;20261;-69
2021/12/16 03:20:25;;;;;;;36.85;21.67;;;;;;;1.62;100.00;97463.03;1014753;29;20288;-69
2021/12/16 03:21:01;;;;;;;36.70;22.00;;;;;;;1.56;100.00;97455.94;1008293;29;20798;-68
2021/12/16 03:21:39;;;;;;;36.05;22.08;;;;;;;1.57;100.00;97452.38;1011126;29;20272;-69
2021/12/16 03:22:18;;;;;;;36.78;21.85;;;;;;;1.59;100.00;97459.97;1014052;29;20272;-68
2021/12/16 03:23:04;;;;;;;36.12;20.30;;;;;;;1.58;100.00;97456.59;1012331;29;20993;-68
2021/12/16 03:25:08;;;;;;;35.72;19.60;;;;;;;1.57;100.00;97448.97;1012378;29;20283;-69
2021/12/16 03:25:53;;;;;;;;;;;;;;;1.39;100.00;97433.63;1017063;29;20295;-69
2021/12/16 03:29:06;;;;;;;41.15;22.25;;;;;;;1.64;100.00;97461.13;1018492;29;20297;-68
2021/12/16 03:29:59;;;;;;;40.46;22.08;;;;;;;1.56;100.00;97458.53;1016715;29;21031;-70
2021/12/16 03:31:34;;;;;;;39.92;21.80;;;;;;;1.58;100.00;97461.75;1014742;29;20024;-69
2021/12/16 03:35:27;;;;;;;35.55;21.55;;;;;;;1.50;100.00;97453.19;1014530;29;20301;-69
2021/12/16 03:36:07;;;;;;;38.44;24.24;;;;;;;1.53;100.00;97464.00;1014540;29;20569;-70
2021/12/16 03:37:00;;;;;;;37.67;22.27;;;;;;;1.45;100.00;97450.28;1013833;29;20029;-69
2021/12/16 03:37:31;;;;;;;37.66;21.22;;;;;;;1.49;100.00;97460.16;1010719;29;20100;-68
2021/12/16 03:38:04;;;;;;;34.95;21.77;;;;;;;1.50;100.00;97463.53;1007234;29;20081;-72
2021/12/16 03:38:36;;;;;;;36.82;21.90;;;;;;;1.50;100.00;97459.16;1007563;29;20029;-68
2021/12/16 03:39:08;;;;;;;38.90;24.35;;;;;;;1.52;100.00;97462.41;1010662;29;20060;-69
2021/12/16 03:39:43;;;;;;;42.88;24.02;;;;;;;1.48;100.00;97461.13;1011185;29;20325;-69
2021/12/16 03:40:13;;;;;;;44.10;24.90;;;;;;;1.49;100.00;97457.56;1015377;29;20398;-69
2021/12/16 03:40:44;;;;;;;42.78;24.25;;;;;;;1.48;100.00;97455.94;1015892;29;20067;-70
2021/12/16 03:41:14;;;;;;;41.17;24.80;;;;;;;1.51;100.00;97460.81;1014383;29;20036;-69
2021/12/16 03:41:45;;;;;;;39.28;24.58;;;;;;;1.51;100.00;97463.38;1015608;29;20024;-69
2021/12/16 03:42:19;;;;;;;39.03;24.00;;;;;;;1.44;100.00;97457.22;1018845;29;20027;-70
2021/12/16 03:43:02;;;;;;;38.38;24.56;;;;;;;1.47;100.00;97469.84;1016188;29;20021;-68
2021/12/16 03:43:33;;;;;;;39.18;24.48;;;;;;;1.48;100.00;97463.72;1022495;28;20070;-69
2021/12/16 03:44:09;;;;;;;38.54;24.16;;;;;;;1.46;100.00;97459.66;1022476;29;20031;-69
2021/12/16 03:44:52;;;;;;;35.53;22.38;;;;;;;1.49;100.00;97467.09;1019582;29;20493;-68
2021/12/16 03:46:33;;;;;;;36.22;23.94;;;;;;;1.48;100.00;97462.91;1014715;29;20107;-69
2021/12/16 03:47:04;;;;;;;38.44;24.12;;;;;;;1.42;100.00;97457.41;1019248;28;20035;-69
2021/12/16 03:47:45;;;;;;;40.05;24.95;;;;;;;1.48;100.00;97470.66;1018674;29;20436;-69
2021/12/16 03:48:35;;;;;;;33.90;21.48;;;;;;;1.41;100.00;97455.78;1015980;29;20028;-69
2021/12/16 03:49:14;;;;;;;33.85;22.23;;;;;;;1.46;100.00;97457.06;1014636;29;20062;-69
2021/12/16 03:49:45;;;;;;;33.60;22.02;;;;;;;1.47;100.00;97463.84;1012694;29;20096;-68
2021/12/16 03:50:19;;;;;;;37.38;22.70;;;;;;;1.41;100.00;97455.78;1022092;28;20071;-67
2021/12/16 03:50:49;;;;;;;34.67;22.95;;;;;;;1.50;100.00;97472.09;1018364;29;20031;-69
2021/12/16 03:51:26;;;;;;;34.45;22.00;;;;;;;1.49;100.00;97470.50;1018370;29;20784;-69
2021/12/16 03:51:59;;;;;;;40.25;24.38;;;;;;;1.49;100.00;97467.91;1013404;29;20024;-69
2021/12/16 03:52:30;;;;;;;37.22;23.00;;;;;;;1.47;100.00;97475.00;1013086;29;20272;-69
2021/12/16 03:53:00;;;;;;;32.42;21.75;;;;;;;1.48;100.00;97471.47;1018765;29;20665;-70
2021/12/16 03:53:31;;;;;;;35.88;21.40;;;;;;;1.46;100.00;97470.81;1017878;29;20132;-69
2021/12/16 03:54:09;;;;;;;34.08;21.73;;;;;;;1.37;100.00;97453.66;1018212;29;20091;-69
2021/12/16 03:54:45;;;;;;;28.82;19.82;;;;;;;1.38;100.00;97460.47;1018148;29;20059;-69
2021/12/16 03:55:15;;;;;;;33.72;20.98;;;;;;;1.33;100.00;97447.22;1017805;29;20039;-69
2021/12/16 03:55:47;;;;;;;34.80;21.88;;;;;;;1.43;100.00;97468.53;1011975;29;20640;-69
2021/12/16 03:56:20;;;;;;;32.46;21.04;;;;;;;1.37;100.00;97461.44;1011128;29;20049;-69
2021/12/16 03:56:51;;;;;;;30.44;20.88;;;;;;;1.47;100.00;97469.03;1011250;29;20033;-69
2021/12/16 03:57:23;;;;;;;33.65;21.33;;;;;;;1.45;100.00;97470.97;1011565;29;20071;-69
2021/12/16 03:57:53;;;;;;;36.63;22.45;;;;;;;1.45;100.00;97464.03;1012757;29;20135;-69
2021/12/16 03:58:24;;;;;;;38.40;22.13;;;;;;;1.41;100.00;97466.13;1015227;29;20287;-69
2021/12/16 03:58:54;;;;;;;36.92;23.85;;;;;;;1.41;100.00;97470.50;1014496;29;20515;-69
2021/12/16 03:59:26;;;;;;;40.97;25.20;;;;;;;1.45;100.00;97468.41;1018527;29;20058;-69
2021/12/16 03:59:57;;;;;;;44.63;26.58;;;;;;;1.41;100.00;97467.91;1018735;29;20045;-70
2021/12/16 04:00:30;;;;;;;40.38;25.63;;;;;;;1.45;100.00;97471.78;1010478;29;20372;-70
2021/12/16 04:01:02;;;;;;;45.72;26.30;;;;;;;1.00;100.00;97399.84;1010699;29;20044;-69
2021/12/16 04:01:32;;;;;;;39.38;24.83;;;;;;;1.46;100.00;97470.81;1010903;29;20280;-69
2021/12/16 04:02:07;;;;;;;36.15;24.45;;;;;;;1.49;100.00;97477.44;1010564;29;20347;-69
2021/12/16 04:02:38;;;;;;;36.78;24.52;;;;;;;1.50;100.00;97473.88;1014994;29;20111;-69
2021/12/16 04:03:08;;;;;;;34.97;23.02;;;;;;;1.45;100.00;97464.03;1013685;29;20309;-70
2021/12/16 04:03:39;;;;;;;40.25;24.58;;;;;;;1.52;100.00;97472.75;1015259;29;20454;-70
2021/12/16 04:04:09;;;;;;;42.50;25.98;;;;;;;1.48;100.00;97466.28;1018792;29;20027;-69
2021/12/16 04:04:40;;;;;;;45.40;25.15;;;;;;;1.41;100.00;97458.38;1014496;29;20044;-69
2021/12/16 04:05:11;;;;;;;46.90;28.13;;;;;;;1.49;100.00;97465.31;1014234;29;20591;-69
2021/12/16 04:05:42;;;;;;;44.70;26.42;;;;;;;1.48;100.00;97466.28;1010579;29;20042;-68
2021/12/16 04:06:12;;;;;;;48.10;27.80;;;;;;;1.49;100.00;97467.91;1010753;29;20033;-69
2021/12/16 04:06:43;;;;;;;45.95;27.17;;;;;;;1.41;100.00;97450.63;1014589;29;20077;-69
2021/12/16 04:07:13;;;;;;;42.72;26.00;;;;;;;1.42;100.00;97456.59;1016607;29;20036;-69
2021/12/16 04:07:44;;;;;;;45.58;26.38;;;;;;;1.49;100.00;97467.09;1023409;28;20074;-70
2021/12/16 04:08:14;;;;;;;41.75;26.05;;;;;;;1.44;100.00;97459.00;1018425;29;20032;-69
2021/12/16 04:08:45;;;;;;;42.40;25.73;;;;;;;1.41;100.00;97457.56;1015099;29;20465;-69
2021/12/16 04:09:16;;;;;;;44.45;26.75;;;;;;;1.44;100.00;97464.97;1010520;29;20084;-67
2021/12/16 04:09:48;;;;;;;42.92;26.17;;;;;;;1.46;100.00;97468.22;1006821;29;20033;-70
2021/12/16 04:10:22;;;;;;;36.97;24.17;;;;;;;1.45;100.00;97469.19;1008237;29;20619;-70
2021/12/16 04:11:04;;;;;;;38.17;23.67;;;;;;;1.42;100.00;97464.34;1010420;29;20296;-69
2021/12/16 04:11:40;;;;;;;39.30;23.60;;;;;;;1.45;100.00;97471.78;1010688;29;20767;-69
2021/12/16 04:12:13;;;;;;;43.42;23.80;;;;;;;1.45;100.00;97470.97;1010715;29;20277;-69
2021/12/16 04:12:43;;;;;;;42.83;25.02;;;;;;;1.39;100.00;97469.84;1017840;29;20284;-69
2021/12/16 04:13:15;;;;;;;34.25;22.50;;;;;;;1.40;100.00;97469.66;1016574;29;20275;-69
2021/12/16 04:13:57;;;;;;;37.25;21.83;;;;;;;1.40;100.00;97468.88;1014845;29;20092;-69
2021/12/16 04:14:28;;;;;;;35.38;22.15;;;;;;;1.46;100.00;97477.75;1014275;29;20280;-69
2021/12/16 04:14:59;;;;;;;30.38;20.95;;;;;;;1.49;100.00;97478.25;1020989;29;20362;-68
2021/12/16 04:15:33;;;;;;;33.03;21.17;;;;;;;1.49;100.00;97478.25;1019691;28;20047;-68
2021/12/16 04:16:03;;;;;;;28.15;19.35;;;;;;;1.51;100.00;97481.50;1017594;29;20762;-69
2021/12/16 04:16:36;;;;;;;33.15;21.60;;;;;;;1.45;100.00;97470.97;1018369;29;20275;-68
2021/12/16 04:17:08;;;;;;;40.30;22.17;;;;;;;1.50;100.00;97474.69;1014470;29;20052;-69
2021/12/16 04:17:38;;;;;;;31.75;21.20;;;;;;;1.49;100.00;97480.84;1014966;29;20260;-69
2021/12/16 04:18:09;;;;;;;29.80;20.65;;;;;;;1.47;100.00;97480.19;1014182;29;20842;-69
2021/12/16 04:18:40;;;;;;;28.15;18.73;;;;;;;1.51;100.00;97478.91;1017286;29;20832;-69
2021/12/16 04:19:12;;;;;;;31.67;21.38;;;;;;;1.53;100.00;97484.72;1010584;29;20029;-69
2021/12/16 04:19:43;;;;;;;30.40;19.40;;;;;;;1.55;100.00;97484.56;1011291;29;20380;-69
2021/12/16 04:20:14;;;;;;;35.14;22.20;;;;;;;1.47;100.00;97477.59;1015111;29;20095;-69
2021/12/16 04:20:45;;;;;;;31.33;20.23;;;;;;;1.40;100.00;97468.88;1018037;29;20083;-69
2021/12/16 04:21:19;;;;;;;33.46;22.02;;;;;;;1.46;100.00;97486.31;1018136;29;20024;-69
2021/12/16 04:22:11;;;;;;;34.35;22.23;;;;;;;1.50;100.00;97490.19;1016190;29;20032;-68
2021/12/16 04:22:44;;;;;;;35.85;21.73;;;;;;;1.46;100.00;97486.31;1016181;29;20268;-69
2021/12/16 04:23:18;;;;;;;33.05;21.00;;;;;;;1.47;100.00;97485.34;1018468;29;20808;-70
2021/12/16 04:23:53;;;;;;;37.67;23.25;;;;;;;1.40;100.00;97474.03;1012914;29;20272;-69
2021/12/16 04:24:24;;;;;;;37.25;23.38;;;;;;;1.48;100.00;97484.41;1010796;29;20364;-70
2021/12/16 04:24:54;;;;;;;34.83;22.30;;;;;;;1.46;100.00;97481.16;1021480;29;20283;-69
2021/12/16 04:25:30;;;;;;;31.73;21.05;;;;;;;1.48;100.00;97479.22;1022219;28;20053;-69
2021/12/16 04:26:01;;;;;;;34.00;22.60;;;;;;;1.50;100.00;97482.44;1014415;29;20812;-70
2021/12/16 04:26:31;;;;;;;32.75;22.05;;;;;;;1.47;100.00;97481.97;1014298;29;20276;-69
2021/12/16 04:27:02;;;;;;;32.15;21.30;;;;;;;1.50;100.00;97486.81;1017762;29;20070;-69
2021/12/16 04:27:33;;;;;;;35.65;23.33;;;;;;;1.44;100.00;97480.50;1014373;29;20028;-69
2021/12/16 04:28:07;;;;;;;37.63;24.05;;;;;;;1.51;100.00;97486.66;1018434;29;20023;-69
2021/12/16 04:28:37;;;;;;;28.25;20.00;;;;;;;1.54;100.00;97491.53;1010787;29;20039;-69
2021/12/16 04:29:08;;;;;;;33.97;20.75;;;;;;;1.53;100.00;97484.72;1018040;29;20268;-69
2021/12/16 04:29:38;;;;;;;34.95;21.85;;;;;;;1.49;100.00;97488.59;1018571;29;20572;-70
2021/12/16 04:30:10;;;;;;;36.95;21.92;;;;;;;1.46;100.00;97483.75;1026365;28;20035;-67
2021/12/16 04:30:41;;;;;;;34.33;22.45;;;;;;;1.49;100.00;97488.59;1022412;28;20026;-68
2021/12/16 04:31:11;;;;;;;38.20;23.27;;;;;;;1.51;100.00;97489.25;1021065;29;20760;-69
2021/12/16 04:31:42;;;;;;;36.22;24.13;;;;;;;1.43;100.00;97473.72;1019657;29;20024;-69
2021/12/16 04:32:12;;;;;;;37.53;24.10;;;;;;;1.54;100.00;97495.84;1018913;29;20031;-69
2021/12/16 04:32:43;;;;;;;36.38;22.90;;;;;;;1.52;100.00;97488.28;1019906;28;20023;-69
2021/12/16 04:33:13;;;;;;;37.47;23.63;;;;;;;1.51;100.00;97485.84;1026803;28;20031;-69
2021/12/16 04:33:44;;;;;;;43.92;25.15;;;;;;;1.37;100.00;97461.44;1019255;29;20075;-69
2021/12/16 04:34:14;;;;;;;42.80;25.27;;;;;;;1.52;100.00;97488.28;1015356;29;20047;-69
2021/12/16 04:34:45;;;;;;;36.75;22.70;;;;;;;1.52;100.00;97488.28;1001422;29;20555;-69
2021/12/16 04:35:16;;;;;;;37.28;22.60;;;;;;;1.48;100.00;97476.63;1014512;29;20372;-69
2021/12/16 04:35:46;;;;;;;38.60;23.48;;;;;;;1.53;100.00;97491.66;1015266;29;20028;-69
2021/12/16 04:36:17;;;;;;;37.25;24.25;;;;;;;1.54;100.00;97490.69;1015356;29;20099;-69
2021/12/16 04:36:47;;;;;;;39.05;23.77;;;;;;;1.44;100.00;97477.09;1016795;29;20032;-69
2021/12/16 04:37:18;;;;;;;36.55;22.88;;;;;;;1.54;100.00;97494.09;1015287;29;20135;-69
2021/12/16 04:37:48;;;;;;;33.88;21.08;;;;;;;1.43;100.00;97481.47;1015163;29;20028;-69
2021/12/16 04:38:19;;;;;;;35.92;22.73;;;;;;;1.53;100.00;97497.63;1015161;29;20027;-70
2021/12/16 04:38:49;;;;;;;32.35;21.67;;;;;;;1.53;100.00;97497.63;1015154;29;20024;-68
2021/12/16 04:39:22;;;;;;;41.95;24.80;;;;;;;1.48;100.00;97492.16;1011420;29;20518;-68
2021/12/16 04:39:53;;;;;;;35.95;23.23;;;;;;;1.47;100.00;97494.88;1020513;29;20597;-69